createdAt,value
2022-11-26T00:00:14.644Z,19.80
2022-11-26T00:03:01.214Z,24.42
2022-11-26T00:05:49.444Z,22.73
2022-11-26T00:08:36.307Z,20.83
2022-11-26T00:11:22.703Z,23.95
2022-11-26T00:14:16.681Z,20.92
2022-11-26T00:17:03.076Z,24.08
2022-11-26T00:19:50.282Z,24.15
2022-11-26T00:22:45.068Z,22.60
2022-11-26T00:25:39.115Z,19.92
2022-11-26T00:28:26.665Z,22.65
2022-11-26T00:31:15.276Z,23.85
2022-11-26T00:34:01.800Z,19.73
2022-11-26T00:36:48.548Z,24.05
2022-11-26T00:39:34.697Z,23.13
2022-11-26T00:42:21.067Z,23.60
2022-11-26T00:45:15.519Z,23.38
2022-11-26T00:48:02.028Z,20.70
2022-11-26T00:50:50.676Z,23.45
2022-11-26T00:53:36.770Z,22.92
2022-11-26T00:56:23.255Z,25.65
2022-11-26T00:59:15.188Z,21.02
2022-11-26T01:02:01.556Z,21.02
2022-11-26T01:04:47.837Z,22.02
2022-11-26T01:07:35.115Z,20.42
2022-11-26T01:10:23.608Z,21.73
2022-11-26T01:13:10.912Z,22.38
2022-11-26T01:15:58.130Z,22.33
2022-11-26T01:18:44.546Z,23.05
2022-11-26T01:21:31.837Z,22.67
2022-11-26T01:24:18.108Z,20.17
2022-11-26T01:27:04.499Z,22.55
2022-11-26T01:29:50.663Z,22.42
2022-11-26T01:32:36.747Z,21.60
2022-11-26T01:35:23.713Z,22.40
2022-11-26T01:38:13.050Z,23.95
2022-11-26T01:41:08.206Z,22.15
2022-11-26T01:43:56.075Z,22.27
2022-11-26T01:47:07.209Z,22.23
2022-11-26T01:50:12.296Z,26.13
2022-11-26T01:53:01.993Z,24.52
2022-11-26T01:56:11.395Z,25.52
2022-11-26T01:59:02.462Z,21.00
2022-11-26T02:01:50.085Z,22.08
2022-11-26T02:04:45.675Z,21.88
2022-11-26T02:07:31.908Z,24.33
2022-11-26T02:10:17.974Z,25.20
2022-11-26T02:13:04.482Z,26.05
2022-11-26T02:16:11.697Z,22.58
2022-11-26T02:19:21.201Z,24.60
2022-11-26T02:22:26.406Z,26.80
2022-11-26T02:25:13.384Z,23.70
2022-11-26T02:28:21.516Z,23.92
2022-11-26T02:31:07.807Z,25.05
2022-11-26T02:34:06.240Z,27.58
2022-11-26T02:36:55.544Z,26.33
2022-11-26T02:39:42.633Z,22.00
2022-11-26T02:42:30.302Z,26.30
2022-11-26T02:45:28.605Z,22.60
2022-11-26T02:48:17.190Z,23.17
2022-11-26T02:51:06.433Z,22.98
2022-11-26T02:53:52.927Z,24.50
2022-11-26T02:56:40.348Z,26.67
2022-11-26T02:59:26.701Z,25.33
2022-11-26T03:02:19.548Z,23.85
2022-11-26T03:05:31.193Z,25.98
2022-11-26T03:08:18.011Z,22.42
2022-11-26T03:11:04.898Z,25.50
2022-11-26T03:13:51.113Z,21.60
2022-11-26T03:16:37.270Z,22.92
2022-11-26T03:19:23.399Z,21.77
2022-11-26T03:22:10.035Z,27.50
2022-11-26T03:24:56.460Z,23.23
2022-11-26T03:27:42.656Z,28.23
2022-11-26T03:30:28.868Z,25.38
2022-11-26T03:33:15.497Z,22.38
2022-11-26T03:36:01.611Z,26.25
2022-11-26T03:38:48.402Z,26.77
2022-11-26T03:41:34.588Z,25.60
2022-11-26T03:44:20.792Z,23.83
2022-11-26T03:47:07.063Z,27.88
2022-11-26T03:49:53.950Z,26.95
2022-11-26T03:52:40.351Z,28.40
2022-11-26T03:55:26.975Z,23.30
2022-11-26T03:58:13.417Z,25.85
2022-11-26T04:00:59.617Z,25.08
2022-11-26T04:03:45.988Z,25.35
2022-11-26T04:06:32.378Z,25.42
2022-11-26T04:09:19.518Z,24.38
2022-11-26T04:12:06.546Z,22.52
2022-11-26T04:14:53.582Z,26.30
2022-11-26T04:17:40.346Z,28.58
2022-11-26T04:20:53.199Z,25.80
2022-11-26T04:23:40.954Z,23.73
2022-11-26T04:26:27.581Z,27.88
2022-11-26T04:29:13.795Z,24.77
2022-11-26T04:31:59.976Z,25.00
2022-11-26T04:34:47.185Z,26.75
2022-11-26T04:37:34.105Z,25.30
2022-11-26T04:40:45.780Z,24.80
2022-11-26T04:43:32.153Z,29.10
2022-11-26T04:46:19.256Z,26.75
2022-11-26T04:49:05.845Z,28.55
2022-11-26T04:51:52.367Z,27.30
2022-11-26T04:54:39.480Z,26.55
2022-11-26T04:57:26.433Z,24.10
2022-11-26T05:00:13.233Z,24.95
2022-11-26T05:03:00.213Z,25.80
2022-11-26T05:05:47.537Z,25.90
2022-11-26T05:08:33.629Z,25.88
2022-11-26T05:11:20.258Z,25.00
2022-11-26T05:14:06.788Z,27.33
2022-11-26T05:16:53.091Z,26.10
2022-11-26T05:19:39.179Z,27.15
2022-11-26T05:22:25.756Z,29.80
2022-11-26T05:25:12.837Z,26.38
2022-11-26T05:27:59.115Z,27.27
2022-11-26T05:30:45.798Z,24.98
2022-11-26T05:33:31.880Z,28.42
2022-11-26T05:36:18.611Z,25.27
2022-11-26T05:39:05.339Z,24.38
2022-11-26T05:41:51.710Z,27.55
2022-11-26T05:44:38.558Z,25.88
2022-11-26T05:47:25.167Z,28.88
2022-11-26T05:50:11.526Z,27.02
2022-11-26T05:52:58.062Z,24.60
2022-11-26T05:55:44.269Z,27.15
2022-11-26T05:58:30.592Z,29.88
2022-11-26T06:01:16.909Z,27.45
2022-11-26T06:04:03.270Z,26.48
2022-11-26T06:06:49.385Z,26.65
2022-11-26T06:09:36.562Z,28.70
2022-11-26T06:12:23.278Z,30.88
2022-11-26T06:15:09.913Z,25.65
2022-11-26T06:17:56.340Z,29.27
2022-11-26T06:20:42.575Z,27.63
2022-11-26T06:23:28.787Z,27.65
2022-11-26T06:26:19.085Z,30.23
2022-11-26T06:29:05.772Z,31.52
2022-11-26T06:31:52.138Z,31.90
2022-11-26T06:34:40.190Z,30.35
2022-11-26T06:37:28.650Z,30.77
2022-11-26T06:40:19.366Z,31.45
2022-11-26T06:43:05.570Z,31.98
2022-11-26T06:45:52.543Z,31.73
2022-11-26T06:49:05.495Z,28.98
2022-11-26T06:51:51.724Z,32.00
2022-11-26T06:54:41.195Z,29.88
2022-11-26T06:57:30.132Z,33.03
2022-11-26T07:00:40.907Z,29.23
2022-11-26T07:03:33.129Z,32.08
2022-11-26T07:06:27.375Z,32.42
2022-11-26T07:09:15.020Z,33.53
2022-11-26T07:12:01.566Z,30.38
2022-11-26T07:14:47.822Z,32.35
2022-11-26T07:17:34.033Z,32.38
2022-11-26T07:20:20.184Z,33.28
2022-11-26T07:23:06.583Z,33.47
2022-11-26T07:25:53.031Z,32.50
2022-11-26T07:28:39.905Z,38.42
2022-11-26T07:31:26.266Z,37.15
2022-11-26T07:34:12.468Z,40.22
2022-11-26T07:36:58.686Z,36.78
2022-11-26T07:39:45.050Z,33.30
2022-11-26T07:42:32.470Z,39.85
2022-11-26T07:45:18.548Z,37.60
2022-11-26T07:48:23.221Z,36.15
2022-11-26T07:51:17.370Z,36.42
2022-11-26T07:54:06.172Z,35.42
2022-11-26T07:56:54.749Z,32.92
2022-11-26T07:59:41.117Z,29.45
2022-11-26T08:02:27.542Z,31.55
2022-11-26T08:05:13.660Z,34.67
2022-11-26T08:07:59.817Z,34.42
2022-11-26T08:10:46.018Z,31.52
2022-11-26T08:13:32.377Z,32.13
2022-11-26T08:16:19.178Z,34.63
2022-11-26T08:19:09.644Z,29.23
2022-11-26T08:21:55.991Z,33.25
2022-11-26T08:24:48.347Z,32.70
2022-11-26T08:27:35.333Z,34.25
2022-11-26T08:30:22.165Z,33.20
2022-11-26T08:33:11.133Z,30.52
2022-11-26T08:36:08.162Z,33.75
2022-11-26T08:38:54.782Z,31.85
2022-11-26T08:41:41.022Z,30.75
2022-11-26T08:44:27.781Z,32.03
2022-11-26T08:47:14.347Z,35.30
2022-11-26T08:50:00.803Z,30.50
2022-11-26T08:52:47.203Z,32.50
2022-11-26T08:55:58.657Z,34.25
2022-11-26T08:58:41.458Z,33.03
2022-11-26T09:01:29.638Z,36.00
2022-11-26T09:04:30.069Z,35.92
2022-11-26T09:07:16.890Z,39.33
2022-11-26T09:10:28.685Z,35.50
2022-11-26T09:13:19.713Z,37.70
2022-11-26T09:16:07.455Z,38.70
2022-11-26T09:18:54.660Z,39.95
2022-11-26T09:21:41.338Z,40.17
2022-11-26T09:24:28.282Z,39.60
2022-11-26T09:27:14.778Z,40.20
2022-11-26T09:30:00.874Z,45.20
2022-11-26T09:32:47.729Z,43.25
2022-11-26T09:35:35.111Z,40.30
2022-11-26T09:38:21.508Z,40.80
2022-11-26T09:41:13.859Z,46.33
2022-11-26T09:44:07.246Z,40.20
2022-11-26T09:47:11.637Z,39.95
2022-11-26T09:50:07.544Z,48.38
2022-11-26T09:53:00.329Z,45.28
2022-11-26T09:55:49.248Z,47.97
2022-11-26T09:58:41.356Z,53.88
2022-11-26T10:01:28.139Z,53.45
2022-11-26T10:04:20.287Z,51.45
2022-11-26T10:07:10.170Z,48.83
2022-11-26T10:09:57.206Z,42.33
2022-11-26T10:13:17.233Z,43.60
2022-11-26T10:16:19.566Z,40.67
2022-11-26T10:19:10.900Z,42.25
2022-11-26T10:22:01.598Z,44.08
2022-11-26T10:24:50.335Z,37.63
2022-11-26T10:27:37.523Z,42.40
2022-11-26T10:30:26.082Z,40.05
2022-11-26T10:33:13.408Z,40.22
2022-11-26T10:35:59.520Z,41.88
2022-11-26T10:38:46.304Z,42.80
2022-11-26T10:41:35.379Z,40.90
2022-11-26T10:44:32.443Z,44.13
2022-11-26T10:47:19.157Z,47.88
2022-11-26T10:53:32.393Z,44.88
2022-11-26T10:56:20.545Z,46.20
2022-11-26T10:59:15.023Z,49.58
2022-11-26T11:02:06.978Z,44.67
2022-11-26T11:04:54.790Z,44.90
2022-11-26T11:07:44.748Z,40.70
2022-11-26T11:10:30.763Z,42.15
2022-11-26T11:13:17.101Z,38.83
2022-11-26T11:16:13.988Z,41.33
2022-11-26T11:19:02.884Z,41.08
2022-11-26T11:21:49.257Z,40.90
2022-11-26T11:24:35.706Z,38.65
2022-11-26T11:27:27.962Z,41.25
2022-11-26T11:30:38.414Z,43.00
2022-11-26T11:33:27.745Z,39.13
2022-11-26T11:36:15.272Z,38.08
2022-11-26T11:39:02.676Z,41.25
2022-11-26T11:41:50.003Z,41.15
2022-11-26T11:44:44.024Z,40.15
2022-11-26T11:47:33.174Z,42.97
2022-11-26T11:50:29.425Z,38.63
2022-11-26T11:53:34.547Z,38.05
2022-11-26T11:56:21.316Z,39.17
2022-11-26T11:59:19.936Z,40.58
2022-11-26T12:02:27.067Z,36.05
2022-11-26T12:05:32.805Z,40.72
2022-11-26T12:08:24.995Z,41.28
2022-11-26T12:11:29.792Z,35.20
2022-11-26T12:14:25.517Z,35.33
2022-11-26T12:17:34.609Z,34.97
2022-11-26T12:20:31.221Z,37.25
2022-11-26T12:23:25.658Z,35.05
2022-11-26T12:26:17.850Z,37.75
2022-11-26T12:29:12.750Z,29.33
2022-11-26T12:32:01.496Z,28.90
2022-11-26T12:35:00.053Z,27.67
2022-11-26T12:37:51.433Z,30.70
2022-11-26T12:40:50.355Z,29.10
2022-11-26T12:43:44.353Z,34.40
2022-11-26T12:46:39.838Z,40.50
2022-11-26T12:49:36.586Z,40.95
2022-11-26T12:52:31.992Z,40.28
2022-11-26T12:55:22.061Z,38.58
2022-11-26T12:58:16.157Z,39.95
2022-11-26T13:01:03.015Z,39.47
2022-11-26T13:03:49.974Z,35.90
2022-11-26T13:06:48.217Z,34.00
2022-11-26T13:09:41.088Z,31.65
2022-11-26T13:12:38.766Z,35.00
2022-11-26T13:15:27.938Z,33.05
2022-11-26T13:18:32.955Z,27.83
2022-11-26T13:21:26.592Z,30.55
2022-11-26T13:24:31.697Z,31.17
2022-11-26T13:27:36.994Z,35.90
2022-11-26T13:30:41.883Z,31.95
2022-11-26T13:33:29.537Z,34.25
2022-11-26T13:36:16.102Z,37.67
2022-11-26T13:39:12.130Z,32.95
2022-11-26T13:42:17.616Z,31.98
2022-11-26T13:45:13.652Z,32.08
2022-11-26T13:48:09.549Z,32.20
2022-11-26T13:50:59.979Z,30.50
2022-11-26T13:53:57.431Z,33.88
2022-11-26T13:56:44.084Z,31.40
2022-11-26T13:59:31.291Z,33.47
2022-11-26T14:02:36.793Z,30.50
2022-11-26T14:05:24.344Z,34.58
2022-11-26T14:08:30.165Z,31.33
2022-11-26T14:11:35.226Z,37.15
2022-11-26T14:14:29.830Z,37.80
2022-11-26T14:17:22.881Z,34.20
2022-11-26T14:20:09.583Z,34.80
2022-11-26T14:22:56.099Z,37.53
2022-11-26T14:25:42.359Z,35.63
2022-11-26T14:28:28.630Z,35.05
2022-11-26T14:31:14.764Z,35.50
2022-11-26T14:34:09.690Z,34.72
2022-11-26T14:36:57.944Z,31.45
2022-11-26T14:39:44.188Z,36.97
2022-11-26T14:42:30.614Z,35.58
2022-11-26T14:45:17.151Z,33.00
2022-11-26T14:48:04.844Z,37.80
2022-11-26T14:50:51.477Z,35.70
2022-11-26T14:53:41.445Z,34.35
2022-11-26T14:56:28.596Z,36.35
2022-11-26T14:59:17.966Z,38.10
2022-11-26T15:02:04.154Z,43.85
2022-11-26T15:05:06.800Z,40.63
2022-11-26T15:08:17.307Z,38.17
2022-11-26T15:11:07.786Z,40.17
2022-11-26T15:13:54.085Z,40.03
2022-11-26T15:16:41.583Z,45.20
2022-11-26T15:19:28.832Z,38.42
2022-11-26T15:22:35.110Z,35.58
2022-11-26T15:25:22.972Z,31.83
2022-11-26T15:28:28.096Z,31.92
2022-11-26T15:31:14.343Z,34.30
2022-11-26T15:34:01.367Z,31.55
2022-11-26T15:36:48.000Z,34.08
2022-11-26T15:39:34.396Z,33.63
2022-11-26T15:42:29.104Z,34.05
2022-11-26T15:45:20.330Z,30.85
2022-11-26T15:48:07.861Z,35.70
2022-11-26T15:50:55.537Z,32.50
2022-11-26T15:53:47.726Z,32.25
2022-11-26T15:56:38.909Z,32.03
2022-11-26T15:59:30.938Z,30.50
2022-11-26T16:02:19.540Z,29.27
2022-11-26T16:05:06.176Z,29.98
2022-11-26T16:08:03.617Z,28.33
2022-11-26T16:11:07.883Z,28.38
2022-11-26T16:13:54.035Z,26.58
2022-11-26T16:16:40.531Z,26.80
2022-11-26T16:19:28.746Z,27.35
2022-11-26T16:22:40.608Z,25.13
2022-11-26T16:25:31.755Z,30.55
2022-11-26T16:28:18.208Z,28.42
2022-11-26T16:31:04.612Z,28.58
2022-11-26T16:33:51.007Z,30.85
2022-11-26T16:36:41.723Z,26.85
2022-11-26T16:39:30.306Z,32.28
2022-11-26T16:42:18.313Z,31.48
2022-11-26T16:45:05.274Z,29.27
2022-11-26T16:47:53.440Z,29.20
2022-11-26T16:50:39.485Z,28.58
2022-11-26T16:53:25.570Z,29.88
2022-11-26T16:56:36.265Z,27.42
2022-11-26T16:59:27.038Z,25.75
2022-11-26T17:02:33.608Z,26.60
2022-11-26T17:05:21.076Z,29.42
2022-11-26T17:08:08.228Z,28.13
2022-11-26T17:10:55.288Z,30.08
2022-11-26T17:13:41.776Z,26.83
2022-11-26T17:16:29.783Z,28.98
2022-11-26T17:19:16.547Z,24.38
2022-11-26T17:22:28.128Z,25.38
2022-11-26T17:25:15.463Z,26.48
2022-11-26T17:31:34.554Z,25.45
2022-11-26T17:34:21.113Z,25.73
2022-11-26T17:37:14.104Z,23.88
2022-11-26T17:40:01.174Z,30.52
2022-11-26T17:42:47.967Z,28.20
2022-11-26T17:45:35.145Z,29.83
2022-11-26T17:48:26.472Z,26.20
2022-11-26T17:51:14.655Z,36.03
2022-11-26T17:54:01.738Z,28.33
2022-11-26T17:56:47.992Z,27.30
2022-11-26T17:59:34.668Z,27.05
2022-11-26T18:02:21.453Z,27.85
2022-11-26T18:05:09.387Z,26.25
2022-11-26T18:07:56.102Z,26.30
2022-11-26T18:10:43.314Z,24.63
2022-11-26T18:13:30.332Z,24.70
2022-11-26T18:16:16.778Z,26.10
2022-11-26T18:19:03.177Z,25.42
2022-11-26T18:21:50.159Z,25.17
2022-11-26T18:24:36.509Z,25.00
2022-11-26T18:27:28.799Z,24.27
2022-11-26T18:30:15.500Z,28.02
2022-11-26T18:33:01.970Z,24.73
2022-11-26T18:35:51.934Z,25.15
2022-11-26T18:39:12.133Z,26.55
2022-11-26T18:44:55.158Z,25.98
2022-11-26T18:47:41.950Z,23.20
2022-11-26T18:50:29.063Z,25.17
2022-11-26T18:53:15.539Z,27.33
2022-11-26T18:56:02.333Z,25.85
2022-11-26T18:58:49.157Z,23.55
2022-11-26T19:01:35.628Z,20.58
2022-11-26T19:04:22.295Z,20.00
2022-11-26T19:07:10.508Z,22.25
2022-11-26T19:09:57.060Z,21.90
2022-11-26T19:12:43.473Z,24.75
2022-11-26T19:15:29.993Z,20.98
2022-11-26T19:18:16.178Z,21.10
2022-11-26T19:21:03.404Z,23.17
2022-11-26T19:23:51.225Z,22.65
2022-11-26T19:26:37.776Z,24.48
2022-11-26T19:29:24.039Z,26.02
2022-11-26T19:32:11.050Z,25.83
2022-11-26T19:35:02.619Z,29.10
2022-11-26T19:37:54.101Z,24.23
2022-11-26T19:40:40.874Z,24.20
2022-11-26T19:43:28.117Z,33.67
2022-11-26T19:46:17.065Z,32.03
2022-11-26T19:49:04.276Z,31.33
2022-11-26T19:51:51.019Z,31.13
2022-11-26T19:55:03.243Z,28.63
2022-11-26T19:57:49.644Z,31.30
2022-11-26T20:00:37.063Z,35.67
2022-11-26T20:03:23.871Z,34.42
2022-11-26T20:06:19.883Z,32.65
2022-11-26T20:09:08.326Z,32.38
2022-11-26T20:11:54.689Z,36.92
2022-11-26T20:14:41.115Z,32.95
2022-11-26T20:17:27.408Z,32.38
2022-11-26T20:20:13.646Z,33.67
2022-11-26T20:23:00.876Z,31.98
2022-11-26T20:25:47.845Z,32.35
2022-11-26T20:28:34.396Z,29.73
2022-11-26T20:31:24.159Z,27.63
2022-11-26T20:34:10.437Z,34.97
2022-11-26T20:36:56.681Z,30.35
2022-11-26T20:39:43.095Z,28.90
2022-11-26T20:42:29.558Z,33.28
2022-11-26T20:45:16.234Z,30.65
2022-11-26T20:48:03.799Z,32.53
2022-11-26T20:50:51.068Z,31.30
2022-11-26T20:53:38.318Z,42.40
2022-11-26T20:56:25.275Z,31.80
2022-11-26T20:59:12.991Z,35.35
2022-11-26T21:02:00.416Z,30.75
2022-11-26T21:04:48.101Z,32.63
2022-11-26T21:07:35.070Z,31.73
2022-11-26T21:10:25.433Z,34.75
2022-11-26T21:13:13.630Z,33.22
2022-11-26T21:16:04.058Z,31.08
2022-11-26T21:18:55.524Z,32.47
2022-11-26T21:21:42.796Z,30.83
2022-11-26T21:24:29.095Z,28.67
2022-11-26T21:27:16.338Z,28.05
2022-11-26T21:30:02.946Z,27.45
2022-11-26T21:35:51.104Z,28.13
2022-11-26T21:38:38.364Z,27.90
2022-11-26T21:41:25.174Z,29.50
2022-11-26T21:44:12.212Z,31.90
2022-11-26T21:46:59.258Z,31.55
2022-11-26T21:49:46.153Z,28.83
2022-11-26T21:52:32.527Z,28.80
2022-11-26T21:55:20.021Z,32.47
2022-11-26T21:58:06.885Z,27.83
2022-11-26T22:00:56.418Z,31.00
2022-11-26T22:03:44.196Z,30.55
2022-11-26T22:06:31.358Z,28.65
2022-11-26T22:09:18.286Z,28.95
2022-11-26T22:12:04.829Z,32.72
2022-11-26T22:14:51.002Z,30.98
2022-11-26T22:17:37.318Z,32.63
2022-11-26T22:20:24.444Z,31.13
2022-11-26T22:23:39.789Z,34.20
2022-11-26T22:26:27.983Z,32.60
2022-11-26T22:29:26.394Z,32.70
2022-11-26T22:32:12.787Z,33.15
2022-11-26T22:34:59.795Z,35.28
2022-11-26T22:37:46.154Z,29.58
2022-11-26T22:40:35.400Z,31.67
2022-11-26T22:43:21.414Z,30.45
2022-11-26T22:46:10.464Z,33.72
2022-11-26T22:48:59.765Z,34.55
2022-11-26T22:51:50.346Z,32.85
2022-11-26T22:54:37.197Z,32.40
2022-11-26T22:57:25.474Z,34.50
2022-11-26T23:00:15.306Z,31.00
2022-11-26T23:03:01.848Z,30.10
2022-11-26T23:05:48.314Z,34.33
2022-11-26T23:08:35.668Z,35.50
2022-11-26T23:11:34.115Z,33.85
2022-11-26T23:14:20.494Z,36.83
2022-11-26T23:17:06.793Z,32.40
2022-11-26T23:19:53.085Z,30.55
2022-11-26T23:22:40.158Z,33.75
2022-11-26T23:25:26.448Z,32.25
2022-11-26T23:28:14.087Z,34.35
2022-11-26T23:31:04.048Z,33.95
2022-11-26T23:33:50.843Z,35.40
2022-11-26T23:36:38.721Z,34.35
2022-11-26T23:39:25.160Z,31.05
2022-11-26T23:42:12.390Z,32.70
2022-11-26T23:44:58.639Z,33.08
2022-11-26T23:47:44.799Z,32.90
2022-11-26T23:50:32.095Z,33.28
2022-11-26T23:53:19.231Z,34.22
2022-11-26T23:56:07.045Z,34.53
2022-11-26T23:58:54.468Z,35.47
